sensor_id;sensor_type;location;lat;lon;timestamp;pressure;altitude;pressure_sealevel;temperature;humidity
38812;BME280;24553;51.640;-0.752;2023-08-06T00:02:02;100546.94;;;15.04;100.00
38812;BME280;24553;51.640;-0.752;2023-08-06T00:04:28;100541.72;;;14.91;100.00
38812;BME280;24553;51.640;-0.752;2023-08-06T00:06:53;100548.00;;;15.03;100.00
38812;BME280;24553;51.640;-0.752;2023-08-06T00:09:18;100552.03;;;14.88;100.00
38812;BME280;24553;51.640;-0.752;2023-08-06T00:11:43;100544.56;;;14.96;100.00
38812;BME280;24553;51.640;-0.752;2023-08-06T00:14:09;100554.91;;;14.86;100.00
38812;BME280;24553;51.640;-0.752;2023-08-06T00:16:35;100568.97;;;14.75;100.00
38812;BME280;24553;51.640;-0.752;2023-08-06T00:19:00;100562.41;;;14.71;100.00
38812;BME280;24553;51.640;-0.752;2023-08-06T00:21:25;100580.72;;;14.67;100.00
38812;BME280;24553;51.640;-0.752;2023-08-06T00:23:50;100569.25;;;14.60;100.00
38812;BME280;24553;51.640;-0.752;2023-08-06T00:26:17;100578.31;;;14.59;100.00
38812;BME280;24553;51.640;-0.752;2023-08-06T00:28:42;100574.00;;;14.51;100.00
38812;BME280;24553;51.640;-0.752;2023-08-06T00:31:08;100574.81;;;14.52;100.00
38812;BME280;24553;51.640;-0.752;2023-08-06T00:33:33;100580.97;;;14.52;100.00
38812;BME280;24553;51.640;-0.752;2023-08-06T00:35:58;100579.53;;;14.50;100.00
38812;BME280;24553;51.640;-0.752;2023-08-06T00:38:24;100579.78;;;14.48;100.00
38812;BME280;24553;51.640;-0.752;2023-08-06T00:40:49;100584.09;;;14.43;100.00
38812;BME280;24553;51.640;-0.752;2023-08-06T00:43:14;100598.28;;;14.36;100.00
38812;BME280;24553;51.640;-0.752;2023-08-06T00:45:40;100595.66;;;14.30;100.00
38812;BME280;24553;51.640;-0.752;2023-08-06T00:48:05;100603.44;;;14.31;100.00
38812;BME280;24553;51.640;-0.752;2023-08-06T00:50:34;100608.41;;;14.28;100.00
38812;BME280;24553;51.640;-0.752;2023-08-06T00:52:59;100612.50;;;14.24;100.00
38812;BME280;24553;51.640;-0.752;2023-08-06T00:55:25;100603.28;;;14.19;100.00
38812;BME280;24553;51.640;-0.752;2023-08-06T00:57:50;100612.94;;;14.14;100.00
38812;BME280;24553;51.640;-0.752;2023-08-06T01:00:18;100608.66;;;14.06;100.00
38812;BME280;24553;51.640;-0.752;2023-08-06T01:02:45;100619.94;;;14.15;100.00
38812;BME280;24553;51.640;-0.752;2023-08-06T01:05:11;100612.75;;;14.15;100.00
38812;BME280;24553;51.640;-0.752;2023-08-06T01:13:01;100625.13;;;13.90;100.00
38812;BME280;24553;51.640;-0.752;2023-08-06T01:15:32;100631.28;;;13.90;100.00
38812;BME280;24553;51.640;-0.752;2023-08-06T01:18:00;100632.66;;;14.06;100.00
38812;BME280;24553;51.640;-0.752;2023-08-06T01:20:30;100641.72;;;13.99;100.00
38812;BME280;24553;51.640;-0.752;2023-08-06T01:22:55;100639.03;;;13.99;100.00
38812;BME280;24553;51.640;-0.752;2023-08-06T01:25:22;100648.28;;;13.96;100.00
38812;BME280;24553;51.640;-0.752;2023-08-06T01:27:56;100648.94;;;13.91;100.00
38812;BME280;24553;51.640;-0.752;2023-08-06T01:30:29;100646.47;;;13.90;100.00
38812;BME280;24553;51.640;-0.752;2023-08-06T01:33:00;100652.03;;;13.82;100.00
38812;BME280;24553;51.640;-0.752;2023-08-06T01:35:29;100642.59;;;13.79;100.00
38812;BME280;24553;51.640;-0.752;2023-08-06T01:37:55;100652.03;;;13.82;100.00
38812;BME280;24553;51.640;-0.752;2023-08-06T01:40:21;100657.13;;;13.83;100.00
38812;BME280;24553;51.640;-0.752;2023-08-06T01:42:46;100666.81;;;13.71;100.00
38812;BME280;24553;51.640;-0.752;2023-08-06T01:45:12;100657.78;;;13.79;100.00
38812;BME280;24553;51.640;-0.752;2023-08-06T01:47:37;100665.75;;;13.79;100.00
38812;BME280;24553;51.640;-0.752;2023-08-06T01:50:03;100669.03;;;13.67;100.00
38812;BME280;24553;51.640;-0.752;2023-08-06T01:52:28;100673.94;;;13.70;100.00
38812;BME280;24553;51.640;-0.752;2023-08-06T01:54:54;100669.84;;;13.74;100.00
38812;BME280;24553;51.640;-0.752;2023-08-06T01:57:20;100668.44;;;13.72;100.00
38812;BME280;24553;51.640;-0.752;2023-08-06T01:59:45;100664.94;;;13.65;100.00
38812;BME280;24553;51.640;-0.752;2023-08-06T02:02:10;100671.09;;;13.65;100.00
38812;BME280;24553;51.640;-0.752;2023-08-06T02:04:36;100669.88;;;13.55;100.00
38812;BME280;24553;51.640;-0.752;2023-08-06T02:07:01;100681.34;;;13.42;100.00
38812;BME280;24553;51.640;-0.752;2023-08-06T02:09:26;100677.66;;;13.43;100.00
38812;BME280;24553;51.640;-0.752;2023-08-06T02:11:52;100684.41;;;13.39;100.00
38812;BME280;24553;51.640;-0.752;2023-08-06T02:14:17;100677.44;;;13.24;100.00
38812;BME280;24553;51.640;-0.752;2023-08-06T02:16:42;100680.69;;;13.13;100.00
38812;BME280;24553;51.640;-0.752;2023-08-06T02:19:08;100684.19;;;13.20;100.00
38812;BME280;24553;51.640;-0.752;2023-08-06T02:21:33;100686.03;;;13.26;100.00
38812;BME280;24553;51.640;-0.752;2023-08-06T02:23:58;100692.81;;;13.36;100.00
38812;BME280;24553;51.640;-0.752;2023-08-06T02:26:24;100697.53;;;13.40;100.00
38812;BME280;24553;51.640;-0.752;2023-08-06T02:28:49;100696.31;;;13.36;100.00
38812;BME280;24553;51.640;-0.752;2023-08-06T02:31:14;100699.78;;;13.30;100.00
38812;BME280;24553;51.640;-0.752;2023-08-06T02:33:39;100698.91;;;13.16;100.00
38812;BME280;24553;51.640;-0.752;2023-08-06T02:36:05;100710.88;;;12.65;100.00
38812;BME280;24553;51.640;-0.752;2023-08-06T02:38:31;100701.13;;;12.99;100.00
38812;BME280;24553;51.640;-0.752;2023-08-06T02:40:57;100714.75;;;12.70;100.00
38812;BME280;24553;51.640;-0.752;2023-08-06T02:43:22;100700.50;;;12.97;100.00
38812;BME280;24553;51.640;-0.752;2023-08-06T02:45:47;100715.75;;;12.20;100.00
38812;BME280;24553;51.640;-0.752;2023-08-06T02:48:13;100711.13;;;12.91;100.00
38812;BME280;24553;51.640;-0.752;2023-08-06T02:50:39;100713.03;;;13.10;100.00
38812;BME280;24553;51.640;-0.752;2023-08-06T02:53:05;100710.97;;;13.05;100.00
38812;BME280;24553;51.640;-0.752;2023-08-06T02:55:31;100705.03;;;13.03;100.00
38812;BME280;24553;51.640;-0.752;2023-08-06T02:57:57;100709.75;;;13.01;100.00
38812;BME280;24553;51.640;-0.752;2023-08-06T03:00:22;100714.44;;;12.99;100.00
38812;BME280;24553;51.640;-0.752;2023-08-06T03:02:47;100723.84;;;12.40;100.00
38812;BME280;24553;51.640;-0.752;2023-08-06T03:05:13;100718.75;;;12.46;100.00
38812;BME280;24553;51.640;-0.752;2023-08-06T03:07:38;100719.63;;;12.18;100.00
38812;BME280;24553;51.640;-0.752;2023-08-06T03:10:04;100712.56;;;12.86;100.00
38812;BME280;24553;51.640;-0.752;2023-08-06T03:12:29;100705.66;;;12.99;100.00
38812;BME280;24553;51.640;-0.752;2023-08-06T03:14:54;100700.69;;;12.96;100.00
38812;BME280;24553;51.640;-0.752;2023-08-06T03:17:20;100707.88;;;12.88;100.00
38812;BME280;24553;51.640;-0.752;2023-08-06T03:19:45;100704.22;;;12.96;100.00
38812;BME280;24553;51.640;-0.752;2023-08-06T03:22:10;100705.44;;;12.94;100.00
38812;BME280;24553;51.640;-0.752;2023-08-06T03:24:36;100714.63;;;12.91;100.00
38812;BME280;24553;51.640;-0.752;2023-08-06T03:27:01;100709.78;;;13.15;100.00
38812;BME280;24553;51.640;-0.752;2023-08-06T03:29:27;100706.50;;;13.13;100.00
38812;BME280;24553;51.640;-0.752;2023-08-06T03:31:52;100718.38;;;13.23;100.00
38812;BME280;24553;51.640;-0.752;2023-08-06T03:34:17;100721.84;;;13.24;100.00
38812;BME280;24553;51.640;-0.752;2023-08-06T03:36:43;100720.28;;;13.29;100.00
38812;BME280;24553;51.640;-0.752;2023-08-06T03:39:08;100715.53;;;13.25;100.00
38812;BME280;24553;51.640;-0.752;2023-08-06T03:41:33;100720.63;;;13.20;100.00
38812;BME280;24553;51.640;-0.752;2023-08-06T03:43:58;100716.72;;;13.16;100.00
38812;BME280;24553;51.640;-0.752;2023-08-06T03:46:25;100717.53;;;13.09;100.00
38812;BME280;24553;51.640;-0.752;2023-08-06T03:48:51;100722.22;;;13.01;100.00
38812;BME280;24553;51.640;-0.752;2023-08-06T03:51:16;100718.75;;;13.14;100.00
38812;BME280;24553;51.640;-0.752;2023-08-06T03:53:41;100723.91;;;13.15;100.00
38812;BME280;24553;51.640;-0.752;2023-08-06T03:56:07;100721.44;;;13.20;100.00
38812;BME280;24553;51.640;-0.752;2023-08-06T03:58:32;100727.59;;;13.14;100.00
38812;BME280;24553;51.640;-0.752;2023-08-06T04:01:01;100737.41;;;13.07;100.00
38812;BME280;24553;51.640;-0.752;2023-08-06T04:03:27;100743.94;;;13.04;100.00
38812;BME280;24553;51.640;-0.752;2023-08-06T04:05:53;100745.78;;;13.04;100.00
38812;BME280;24553;51.640;-0.752;2023-08-06T04:08:19;100741.06;;;12.99;100.00
38812;BME280;24553;51.640;-0.752;2023-08-06T04:10:44;100743.06;;;12.91;100.00
38812;BME280;24553;51.640;-0.752;2023-08-06T04:13:09;100746.78;;;12.96;100.00
38812;BME280;24553;51.640;-0.752;2023-08-06T04:15:35;100745.56;;;12.99;100.00
38812;BME280;24553;51.640;-0.752;2023-08-06T04:18:00;100746.72;;;12.83;100.00
38812;BME280;24553;51.640;-0.752;2023-08-06T04:20:25;100751.84;;;12.84;100.00
38812;BME280;24553;51.640;-0.752;2023-08-06T04:22:51;100754.28;;;12.79;100.00
38812;BME280;24553;51.640;-0.752;2023-08-06T04:25:16;100762.28;;;12.79;100.00
38812;BME280;24553;51.640;-0.752;2023-08-06T04:27:46;100757.31;;;12.70;100.00
38812;BME280;24553;51.640;-0.752;2023-08-06T04:30:12;100776.34;;;12.66;100.00
38812;BME280;24553;51.640;-0.752;2023-08-06T04:32:37;100778.22;;;12.73;100.00
38812;BME280;24553;51.640;-0.752;2023-08-06T04:35:03;100772.91;;;12.79;100.00
38812;BME280;24553;51.640;-0.752;2023-08-06T04:37:28;100764.31;;;12.77;100.00
38812;BME280;24553;51.640;-0.752;2023-08-06T04:39:54;100764.28;;;12.71;100.00
38812;BME280;24553;51.640;-0.752;2023-08-06T04:42:19;100769.56;;;12.64;100.00
38812;BME280;24553;51.640;-0.752;2023-08-06T04:44:45;100773.63;;;12.53;100.00
38812;BME280;24553;51.640;-0.752;2023-08-06T04:47:10;100772.13;;;12.44;100.00
38812;BME280;24553;51.640;-0.752;2023-08-06T04:49:35;100782.75;;;12.37;100.00
38812;BME280;24553;51.640;-0.752;2023-08-06T04:52:01;100781.06;;;12.36;100.00
38812;BME280;24553;51.640;-0.752;2023-08-06T04:54:26;100775.75;;;12.36;100.00
38812;BME280;24553;51.640;-0.752;2023-08-06T04:56:51;100786.63;;;12.41;100.00
38812;BME280;24553;51.640;-0.752;2023-08-06T04:59:17;100789.53;;;12.47;100.00
38812;BME280;24553;51.640;-0.752;2023-08-06T05:01:42;100791.59;;;12.51;100.00
38812;BME280;24553;51.640;-0.752;2023-08-06T05:04:07;100791.44;;;12.59;100.00
38812;BME280;24553;51.640;-0.752;2023-08-06T05:06:33;100795.13;;;12.58;100.00
38812;BME280;24553;51.640;-0.752;2023-08-06T05:08:59;100796.16;;;12.57;100.00
38812;BME280;24553;51.640;-0.752;2023-08-06T05:11:24;100792.69;;;12.63;100.00
38812;BME280;24553;51.640;-0.752;2023-08-06T05:13:50;100800.09;;;12.68;100.00
38812;BME280;24553;51.640;-0.752;2023-08-06T05:16:15;100803.63;;;12.75;100.00
38812;BME280;24553;51.640;-0.752;2023-08-06T05:18:41;100803.22;;;12.85;100.00
38812;BME280;24553;51.640;-0.752;2023-08-06T05:21:07;100809.19;;;12.87;100.00
38812;BME280;24553;51.640;-0.752;2023-08-06T05:23:32;100813.88;;;12.85;100.00
38812;BME280;24553;51.640;-0.752;2023-08-06T05:25:57;100808.56;;;12.85;100.00
38812;BME280;24553;51.640;-0.752;2023-08-06T05:28:23;100821.91;;;12.92;100.00
38812;BME280;24553;51.640;-0.752;2023-08-06T05:30:48;100811.25;;;12.98;100.00
38812;BME280;24553;51.640;-0.752;2023-08-06T05:33:13;100826.66;;;13.03;100.00
38812;BME280;24553;51.640;-0.752;2023-08-06T05:35:40;100824.03;;;13.16;100.00
38812;BME280;24553;51.640;-0.752;2023-08-06T05:38:06;100821.25;;;13.31;100.00
38812;BME280;24553;51.640;-0.752;2023-08-06T05:40:33;100822.91;;;13.32;100.00
38812;BME280;24553;51.640;-0.752;2023-08-06T05:42:59;100819.81;;;13.28;100.00
38812;BME280;24553;51.640;-0.752;2023-08-06T05:45:24;100824.88;;;13.23;100.00
38812;BME280;24553;51.640;-0.752;2023-08-06T05:47:49;100826.50;;;13.18;100.00
38812;BME280;24553;51.640;-0.752;2023-08-06T05:50:15;100833.75;;;13.30;100.00
38812;BME280;24553;51.640;-0.752;2023-08-06T05:52:40;100834.38;;;13.39;100.00
38812;BME280;24553;51.640;-0.752;2023-08-06T05:55:06;100837.25;;;13.38;100.00
38812;BME280;24553;51.640;-0.752;2023-08-06T05:57:31;100838.69;;;13.47;100.00
38812;BME280;24553;51.640;-0.752;2023-08-06T05:59:57;100849.97;;;13.49;100.00
38812;BME280;24553;51.640;-0.752;2023-08-06T06:02:22;100845.94;;;13.66;100.00
38812;BME280;24553;51.640;-0.752;2023-08-06T06:04:47;100850.03;;;13.75;100.00
38812;BME280;24553;51.640;-0.752;2023-08-06T06:07:13;100846.97;;;13.85;100.00
38812;BME280;24553;51.640;-0.752;2023-08-06T06:09:39;100854.16;;;13.85;100.00
38812;BME280;24553;51.640;-0.752;2023-08-06T06:12:05;100850.88;;;13.96;100.00
38812;BME280;24553;51.640;-0.752;2023-08-06T06:14:31;100853.53;;;13.96;100.00
38812;BME280;24553;51.640;-0.752;2023-08-06T06:16:56;100858.25;;;14.01;100.00
38812;BME280;24553;51.640;-0.752;2023-08-06T06:19:21;100859.09;;;14.14;100.00
38812;BME280;24553;51.640;-0.752;2023-08-06T06:21:47;100862.16;;;14.11;100.00
38812;BME280;24553;51.640;-0.752;2023-08-06T06:24:12;100854.38;;;14.16;100.00
38812;BME280;24553;51.640;-0.752;2023-08-06T06:26:38;100862.59;;;14.15;100.00
38812;BME280;24553;51.640;-0.752;2023-08-06T06:29:03;100867.69;;;14.16;100.00
38812;BME280;24553;51.640;-0.752;2023-08-06T06:31:28;100860.72;;;14.22;100.00
38812;BME280;24553;51.640;-0.752;2023-08-06T06:33:54;100868.72;;;14.22;100.00
38812;BME280;24553;51.640;-0.752;2023-08-06T06:36:20;100869.75;;;14.21;100.00
38812;BME280;24553;51.640;-0.752;2023-08-06T06:38:45;100864.44;;;14.28;100.00
38812;BME280;24553;51.640;-0.752;2023-08-06T06:41:11;100868.72;;;14.42;100.00
38812;BME280;24553;51.640;-0.752;2023-08-06T06:43:36;100868.31;;;14.45;100.00
38812;BME280;24553;51.640;-0.752;2023-08-06T06:46:03;100867.91;;;14.48;100.00
38812;BME280;24553;51.640;-0.752;2023-08-06T06:48:31;100871.63;;;14.21;100.00
38812;BME280;24553;51.640;-0.752;2023-08-06T06:50:56;100880.63;;;14.00;100.00
38812;BME280;24553;51.640;-0.752;2023-08-06T06:53:22;100884.94;;;14.27;100.00
38812;BME280;24553;51.640;-0.752;2023-08-06T06:55:54;100881.84;;;14.37;100.00
38812;BME280;24553;51.640;-0.752;2023-08-06T06:58:19;100885.97;;;14.39;100.00
38812;BME280;24553;51.640;-0.752;2023-08-06T07:00:48;100890.47;;;14.52;100.00
38812;BME280;24553;51.640;-0.752;2023-08-06T07:03:15;100881.66;;;14.65;100.00
38812;BME280;24553;51.640;-0.752;2023-08-06T07:05:40;100892.31;;;14.78;100.00
38812;BME280;24553;51.640;-0.752;2023-08-06T07:08:05;100891.69;;;14.90;100.00
38812;BME280;24553;51.640;-0.752;2023-08-06T07:10:31;100887.97;;;14.97;100.00
38812;BME280;24553;51.640;-0.752;2023-08-06T07:12:56;100894.50;;;15.08;100.00
38812;BME280;24553;51.640;-0.752;2023-08-06T07:15:21;100890.31;;;15.25;100.00
38812;BME280;24553;51.640;-0.752;2023-08-06T07:17:47;100892.81;;;15.59;100.00
38812;BME280;24553;51.640;-0.752;2023-08-06T07:20:12;100881.84;;;15.80;100.00
38812;BME280;24553;51.640;-0.752;2023-08-06T07:22:37;100881.97;;;16.17;100.00
38812;BME280;24553;51.640;-0.752;2023-08-06T07:25:03;100885.91;;;16.14;100.00
38812;BME280;24553;51.640;-0.752;2023-08-06T07:27:28;100889.97;;;16.24;100.00
38812;BME280;24553;51.640;-0.752;2023-08-06T07:29:54;100889.16;;;16.42;100.00
38812;BME280;24553;51.640;-0.752;2023-08-06T07:32:19;100884.06;;;16.40;100.00
38812;BME280;24553;51.640;-0.752;2023-08-06T07:34:44;100881.31;;;16.47;100.00
38812;BME280;24553;51.640;-0.752;2023-08-06T07:37:10;100889.28;;;16.78;100.00
38812;BME280;24553;51.640;-0.752;2023-08-06T07:39:35;100875.75;;;16.92;100.00
38812;BME280;24553;51.640;-0.752;2023-08-06T07:42:03;100885.94;;;17.20;100.00
38812;BME280;24553;51.640;-0.752;2023-08-06T07:44:30;100890.28;;;17.51;100.00
38812;BME280;24553;51.640;-0.752;2023-08-06T07:46:56;100893.13;;;17.68;100.00
38812;BME280;24553;51.640;-0.752;2023-08-06T07:49:21;100901.88;;;17.63;100.00
38812;BME280;24553;51.640;-0.752;2023-08-06T07:51:47;100889.03;;;17.35;100.00
38812;BME280;24553;51.640;-0.752;2023-08-06T07:54:12;100891.94;;;17.34;100.00
38812;BME280;24553;51.640;-0.752;2023-08-06T07:56:37;100894.31;;;17.23;100.00
38812;BME280;24553;51.640;-0.752;2023-08-06T07:59:03;100889.84;;;17.36;100.00
38812;BME280;24553;51.640;-0.752;2023-08-06T08:01:28;100895.94;;;17.43;100.00
38812;BME280;24553;51.640;-0.752;2023-08-06T08:03:53;100898.63;;;17.43;100.00
38812;BME280;24553;51.640;-0.752;2023-08-06T08:06:19;100896.94;;;17.60;100.00
38812;BME280;24553;51.640;-0.752;2023-08-06T08:08:44;100900.22;;;17.62;100.00
38812;BME280;24553;51.640;-0.752;2023-08-06T08:11:09;100886.63;;;17.46;100.00
38812;BME280;24553;51.640;-0.752;2023-08-06T08:13:35;100882.69;;;17.48;100.00
38812;BME280;24553;51.640;-0.752;2023-08-06T08:16:00;100896.94;;;17.60;100.00
38812;BME280;24553;51.640;-0.752;2023-08-06T08:18:26;100897.19;;;17.59;100.00
38812;BME280;24553;51.640;-0.752;2023-08-06T08:20:52;100900.94;;;17.70;100.00
38812;BME280;24553;51.640;-0.752;2023-08-06T08:23:17;100903.50;;;17.64;100.00
38812;BME280;24553;51.640;-0.752;2023-08-06T08:25:43;100901.59;;;17.53;100.00
38812;BME280;24553;51.640;-0.752;2023-08-06T08:28:08;100904.34;;;17.47;100.00
38812;BME280;24553;51.640;-0.752;2023-08-06T08:30:34;100898.53;;;17.50;100.00
38812;BME280;24553;51.640;-0.752;2023-08-06T08:32:59;100898.78;;;17.48;100.00
38812;BME280;24553;51.640;-0.752;2023-08-06T08:35:25;100903.56;;;17.28;100.00
38812;BME280;24553;51.640;-0.752;2023-08-06T08:37:50;100910.53;;;17.47;100.00
38812;BME280;24553;51.640;-0.752;2023-08-06T08:40:16;100913.38;;;17.34;100.00
38812;BME280;24553;51.640;-0.752;2023-08-06T08:42:42;100907.09;;;17.58;100.00
38812;BME280;24553;51.640;-0.752;2023-08-06T08:45:12;100911.22;;;17.73;100.00
38812;BME280;24553;51.640;-0.752;2023-08-06T08:47:40;100912.28;;;17.72;100.00
38812;BME280;24553;51.640;-0.752;2023-08-06T08:50:08;100911.75;;;17.63;100.00
38812;BME280;24553;51.640;-0.752;2023-08-06T08:52:35;100908.63;;;17.84;100.00
38812;BME280;24553;51.640;-0.752;2023-08-06T08:55:02;100913.22;;;18.07;100.00
38812;BME280;24553;51.640;-0.752;2023-08-06T08:57:27;100913.59;;;18.23;100.00
38812;BME280;24553;51.640;-0.752;2023-08-06T08:59:53;100908.13;;;18.18;100.00
38812;BME280;24553;51.640;-0.752;2023-08-06T09:02:21;100910.13;;;18.46;100.00
38812;BME280;24553;51.640;-0.752;2023-08-06T09:04:47;100915.38;;;18.52;100.00
38812;BME280;24553;51.640;-0.752;2023-08-06T09:07:17;100915.03;;;18.49;100.00
38812;BME280;24553;51.640;-0.752;2023-08-06T09:09:43;100921.88;;;18.21;100.00
38812;BME280;24553;51.640;-0.752;2023-08-06T09:12:15;100914.03;;;18.20;100.00
38812;BME280;24553;51.640;-0.752;2023-08-06T09:14:41;100907.19;;;18.47;100.00
38812;BME280;24553;51.640;-0.752;2023-08-06T09:17:07;100916.06;;;18.60;100.00
38812;BME280;24553;51.640;-0.752;2023-08-06T09:19:32;100916.31;;;18.93;100.00
38812;BME280;24553;51.640;-0.752;2023-08-06T09:21:58;100916.47;;;19.27;100.00
38812;BME280;24553;51.640;-0.752;2023-08-06T09:24:24;100908.19;;;19.29;100.00
38812;BME280;24553;51.640;-0.752;2023-08-06T09:26:49;100903.47;;;19.36;100.00
38812;BME280;24553;51.640;-0.752;2023-08-06T09:29:15;100909.91;;;19.64;100.00
38812;BME280;24553;51.640;-0.752;2023-08-06T09:31:41;100909.59;;;19.89;100.00
38812;BME280;24553;51.640;-0.752;2023-08-06T09:34:11;100923.59;;;19.33;100.00
38812;BME280;24553;51.640;-0.752;2023-08-06T09:36:42;100928.03;;;19.39;100.00
38812;BME280;24553;51.640;-0.752;2023-08-06T09:39:20;100922.38;;;19.53;100.00
38812;BME280;24553;51.640;-0.752;2023-08-06T09:41:46;100931.75;;;19.38;100.00
38812;BME280;24553;51.640;-0.752;2023-08-06T09:44:19;100927.72;;;19.24;100.00
38812;BME280;24553;51.640;-0.752;2023-08-06T09:46:56;100922.47;;;19.17;100.00
38812;BME280;24553;51.640;-0.752;2023-08-06T09:52:02;100919.28;;;19.61;100.00
38812;BME280;24553;51.640;-0.752;2023-08-06T09:54:29;100932.53;;;19.51;100.00
38812;BME280;24553;51.640;-0.752;2023-08-06T09:56:56;100934.69;;;19.37;100.00
38812;BME280;24553;51.640;-0.752;2023-08-06T09:59:23;100937.44;;;19.02;100.00
38812;BME280;24553;51.640;-0.752;2023-08-06T10:01:48;100939.31;;;19.13;100.00
38812;BME280;24553;51.640;-0.752;2023-08-06T10:04:14;100939.31;;;19.13;100.00
38812;BME280;24553;51.640;-0.752;2023-08-06T10:06:46;100941.91;;;18.96;100.00
38812;BME280;24553;51.640;-0.752;2023-08-06T10:09:12;100947.38;;;18.89;100.00
38812;BME280;24553;51.640;-0.752;2023-08-06T10:11:39;100943.78;;;18.84;100.00
38812;BME280;24553;51.640;-0.752;2023-08-06T10:14:12;100949.25;;;18.89;100.00
38812;BME280;24553;51.640;-0.752;2023-08-06T10:16:39;100948.13;;;18.85;100.00
38812;BME280;24553;51.640;-0.752;2023-08-06T10:19:07;100945.53;;;18.78;100.00
38812;BME280;24553;51.640;-0.752;2023-08-06T10:21:34;100951.91;;;18.65;100.00
38812;BME280;24553;51.640;-0.752;2023-08-06T10:23:59;100958.56;;;18.63;100.00
38812;BME280;24553;51.640;-0.752;2023-08-06T10:26:29;100958.81;;;18.73;100.00
38812;BME280;24553;51.640;-0.752;2023-08-06T10:28:55;100960.03;;;18.77;100.00
38812;BME280;24553;51.640;-0.752;2023-08-06T10:31:55;100960.81;;;18.89;100.00
38812;BME280;24553;51.640;-0.752;2023-08-06T10:34:21;100958.00;;;18.84;100.00
38812;BME280;24553;51.640;-0.752;2023-08-06T10:36:46;100967.84;;;18.25;100.00
38812;BME280;24553;51.640;-0.752;2023-08-06T10:39:15;100974.25;;;17.63;100.00
38812;BME280;24553;51.640;-0.752;2023-08-06T10:41:42;100986.03;;;17.26;100.00
38812;BME280;24553;51.640;-0.752;2023-08-06T10:44:09;100985.47;;;16.98;100.00
38812;BME280;24553;51.640;-0.752;2023-08-06T10:46:34;100990.34;;;17.08;100.00
38812;BME280;24553;51.640;-0.752;2023-08-06T10:49:00;100989.38;;;17.21;100.00
38812;BME280;24553;51.640;-0.752;2023-08-06T10:51:26;100989.03;;;17.36;100.00
38812;BME280;24553;51.640;-0.752;2023-08-06T10:53:52;100986.69;;;17.58;100.00
38812;BME280;24553;51.640;-0.752;2023-08-06T10:56:20;100993.75;;;17.71;100.00
38812;BME280;24553;51.640;-0.752;2023-08-06T10:58:50;100987.34;;;17.72;100.00
38812;BME280;24553;51.640;-0.752;2023-08-06T11:01:16;100980.25;;;18.26;100.00
38812;BME280;24553;51.640;-0.752;2023-08-06T11:03:42;100974.56;;;18.58;100.00
38812;BME280;24553;51.640;-0.752;2023-08-06T11:06:09;100976.03;;;18.95;100.00
38812;BME280;24553;51.640;-0.752;2023-08-06T11:08:36;100964.78;;;18.87;100.00
38812;BME280;24553;51.640;-0.752;2023-08-06T11:11:15;100977.72;;;19.25;100.00
38812;BME280;24553;51.640;-0.752;2023-08-06T11:13:44;100978.56;;;19.02;100.00
38812;BME280;24553;51.640;-0.752;2023-08-06T11:16:14;100974.38;;;18.94;100.00
38812;BME280;24553;51.640;-0.752;2023-08-06T11:18:40;100969.00;;;19.06;100.00
38812;BME280;24553;51.640;-0.752;2023-08-06T11:21:05;100970.69;;;19.36;100.00
38812;BME280;24553;51.640;-0.752;2023-08-06T11:23:31;100967.75;;;19.49;100.00
38812;BME280;24553;51.640;-0.752;2023-08-06T11:25:57;100963.44;;;19.89;100.00
38812;BME280;24553;51.640;-0.752;2023-08-06T11:28:23;100962.13;;;20.37;100.00
38812;BME280;24553;51.640;-0.752;2023-08-06T11:30:49;100952.16;;;20.37;100.00
38812;BME280;24553;51.640;-0.752;2023-08-06T11:33:20;100954.66;;;20.44;100.00
38812;BME280;24553;51.640;-0.752;2023-08-06T11:35:45;100961.56;;;20.68;100.00
38812;BME280;24553;51.640;-0.752;2023-08-06T11:38:13;100946.81;;;20.93;100.00
38812;BME280;24553;51.640;-0.752;2023-08-06T11:40:38;100947.34;;;21.12;100.00
38812;BME280;24553;51.640;-0.752;2023-08-06T11:43:05;100949.47;;;20.71;100.00
38812;BME280;24553;51.640;-0.752;2023-08-06T11:45:30;100950.19;;;20.66;100.00
38812;BME280;24553;51.640;-0.752;2023-08-06T11:47:56;100947.75;;;20.48;100.00
38812;BME280;24553;51.640;-0.752;2023-08-06T11:50:24;100953.59;;;20.11;100.00
38812;BME280;24553;51.640;-0.752;2023-08-06T11:52:54;100961.72;;;19.99;100.00
38812;BME280;24553;51.640;-0.752;2023-08-06T11:55:23;100965.34;;;19.76;100.00
38812;BME280;24553;51.640;-0.752;2023-08-06T11:57:48;100969.72;;;19.54;100.00
38812;BME280;24553;51.640;-0.752;2023-08-06T12:00:14;100964.72;;;19.46;100.00
38812;BME280;24553;51.640;-0.752;2023-08-06T12:02:41;100966.91;;;19.72;100.00
38812;BME280;24553;51.640;-0.752;2023-08-06T12:05:10;100954.09;;;19.79;100.00
38812;BME280;24553;51.640;-0.752;2023-08-06T12:07:40;100961.72;;;19.99;100.00
38812;BME280;24553;51.640;-0.752;2023-08-06T12:10:07;100966.66;;;20.19;100.00
38812;BME280;24553;51.640;-0.752;2023-08-06T12:12:33;100970.09;;;20.32;100.00
38812;BME280;24553;51.640;-0.752;2023-08-06T12:14:59;100961.59;;;20.23;100.00
38812;BME280;24553;51.640;-0.752;2023-08-06T12:17:24;100962.00;;;20.15;100.00
38812;BME280;24553;51.640;-0.752;2023-08-06T12:19:50;100962.81;;;19.98;100.00
38812;BME280;24553;51.640;-0.752;2023-08-06T12:22:16;100963.38;;;19.60;100.00
38812;BME280;24553;51.640;-0.752;2023-08-06T12:24:46;100971.63;;;19.42;100.00
38812;BME280;24553;51.640;-0.752;2023-08-06T12:27:12;100986.13;;;19.40;100.00
38812;BME280;24553;51.640;-0.752;2023-08-06T12:29:41;100992.59;;;18.81;100.00
38812;BME280;24553;51.640;-0.752;2023-08-06T12:32:07;101002.44;;;18.33;100.00
38812;BME280;24553;51.640;-0.752;2023-08-06T12:34:32;101004.25;;;17.91;100.00